createdAt,value
2024-05-09T00:00:00.350Z,12.30
2024-05-09T00:01:32.164Z,12.06
2024-05-09T00:03:07.098Z,12.28
2024-05-09T00:04:39.610Z,12.26
2024-05-09T00:06:11.460Z,12.17
2024-05-09T00:07:43.385Z,12.31
2024-05-09T00:09:15.187Z,12.43
2024-05-09T00:10:47.018Z,12.40
2024-05-09T00:12:18.861Z,12.31
2024-05-09T00:13:50.907Z,12.39
2024-05-09T00:15:22.739Z,12.48
2024-05-09T00:16:54.532Z,12.35
2024-05-09T00:18:26.446Z,12.19
2024-05-09T00:19:58.533Z,12.19
2024-05-09T00:21:30.395Z,12.13
2024-05-09T00:23:02.229Z,12.12
2024-05-09T00:24:34.043Z,11.94
2024-05-09T00:26:05.862Z,12.06
2024-05-09T00:27:37.648Z,11.69
2024-05-09T00:29:09.490Z,11.84
2024-05-09T00:30:41.408Z,11.91
2024-05-09T00:32:13.242Z,11.76
2024-05-09T00:33:45.097Z,11.78
2024-05-09T00:35:16.919Z,12.01
2024-05-09T00:36:48.638Z,12.04
2024-05-09T00:38:20.402Z,12.01
2024-05-09T00:39:52.138Z,11.81
2024-05-09T00:41:23.928Z,12.02
2024-05-09T00:42:55.663Z,12.08
2024-05-09T00:44:27.504Z,11.77
2024-05-09T00:46:01.975Z,11.76
2024-05-09T00:47:34.426Z,11.69
2024-05-09T00:49:08.491Z,12.01
2024-05-09T00:50:42.411Z,11.93
2024-05-09T00:52:14.258Z,12.00
2024-05-09T00:53:46.890Z,12.02
2024-05-09T00:55:18.651Z,11.90
2024-05-09T00:56:52.461Z,11.96
2024-05-09T00:58:27.602Z,11.76
2024-05-09T00:59:59.898Z,11.70
2024-05-09T01:01:31.775Z,11.47
2024-05-09T01:03:03.776Z,11.50
2024-05-09T01:04:35.769Z,11.51
2024-05-09T01:06:07.491Z,11.49
2024-05-09T01:07:39.265Z,11.28
2024-05-09T01:09:11.130Z,11.38
2024-05-09T01:10:45.087Z,11.03
2024-05-09T01:12:18.785Z,11.40
2024-05-09T01:13:50.679Z,11.60
2024-05-09T01:15:22.448Z,11.77
2024-05-09T01:16:54.379Z,11.26
2024-05-09T01:18:26.279Z,11.32
2024-05-09T01:19:58.129Z,11.48
2024-05-09T01:21:29.860Z,11.30
2024-05-09T01:23:06.684Z,11.34
2024-05-09T01:24:38.552Z,11.28
2024-05-09T01:26:10.414Z,10.94
2024-05-09T01:27:42.164Z,11.01
2024-05-09T01:29:14.219Z,11.15
2024-05-09T01:30:46.056Z,11.27
2024-05-09T01:32:17.879Z,11.63
2024-05-09T01:33:49.894Z,11.39
2024-05-09T01:35:23.710Z,11.23
2024-05-09T01:36:55.708Z,11.39
2024-05-09T01:38:27.463Z,11.55
2024-05-09T01:39:59.215Z,11.40
2024-05-09T01:41:31.759Z,11.12
2024-05-09T01:43:03.666Z,11.06
2024-05-09T01:44:35.398Z,11.34
2024-05-09T01:46:14.231Z,11.46
2024-05-09T01:47:46.283Z,11.48
2024-05-09T01:49:18.437Z,11.18
2024-05-09T01:50:50.321Z,11.10
2024-05-09T01:52:22.080Z,10.99
2024-05-09T01:53:56.308Z,10.98
2024-05-09T01:55:28.198Z,11.37
2024-05-09T01:57:00.148Z,11.55
2024-05-09T01:58:31.905Z,11.53
2024-05-09T02:00:07.665Z,11.20
2024-05-09T02:01:56.199Z,11.05
2024-05-09T02:03:29.772Z,10.50
2024-05-09T02:05:01.672Z,10.72
2024-05-09T02:06:39.699Z,10.63
2024-05-09T02:08:24.080Z,10.83
2024-05-09T02:09:55.844Z,10.75
2024-05-09T02:11:27.643Z,10.50
2024-05-09T02:12:59.382Z,10.46
2024-05-09T02:14:31.184Z,10.36
2024-05-09T02:16:03.028Z,10.42
2024-05-09T02:17:34.846Z,10.63
2024-05-09T02:19:06.745Z,11.10
2024-05-09T02:20:44.238Z,11.28
2024-05-09T02:22:16.101Z,11.14
2024-05-09T02:23:47.847Z,11.09
2024-05-09T02:25:22.009Z,10.73
2024-05-09T02:26:53.943Z,10.81
2024-05-09T02:28:25.635Z,10.91
2024-05-09T02:29:57.390Z,10.68
2024-05-09T02:31:29.053Z,10.39
2024-05-09T02:33:01.018Z,10.28
2024-05-09T02:34:32.879Z,10.47
2024-05-09T02:36:05.628Z,10.51
2024-05-09T02:37:37.340Z,10.42
2024-05-09T02:39:09.034Z,10.58
2024-05-09T02:40:41.021Z,10.59
2024-05-09T02:42:12.877Z,10.32
2024-05-09T02:43:44.633Z,10.18
2024-05-09T02:45:16.320Z,10.48
2024-05-09T02:46:48.119Z,10.40
2024-05-09T02:48:20.069Z,10.70
2024-05-09T02:49:52.026Z,10.67
2024-05-09T02:51:23.764Z,10.89
2024-05-09T02:52:55.551Z,10.86
2024-05-09T02:54:27.351Z,10.91
2024-05-09T02:55:59.380Z,11.12
2024-05-09T02:57:31.083Z,11.22
2024-05-09T02:59:02.868Z,10.90
2024-05-09T03:00:39.333Z,10.73
2024-05-09T03:02:13.738Z,10.78
2024-05-09T03:03:48.445Z,10.77
2024-05-09T03:05:20.340Z,10.47
2024-05-09T03:06:52.186Z,10.52
2024-05-09T03:08:23.959Z,10.32
2024-05-09T03:09:55.664Z,10.04
2024-05-09T03:11:27.437Z,10.05
2024-05-09T03:12:59.566Z,9.97
2024-05-09T03:14:31.342Z,10.16
2024-05-09T03:16:03.182Z,10.24
2024-05-09T03:17:35.217Z,10.54
2024-05-09T03:19:07.180Z,10.62
2024-05-09T03:20:39.491Z,10.73
2024-05-09T03:22:12.530Z,10.36
2024-05-09T03:23:44.462Z,10.61
2024-05-09T03:25:16.354Z,10.81
2024-05-09T03:26:48.335Z,10.53
2024-05-09T03:28:20.051Z,10.82
2024-05-09T03:29:51.797Z,10.57
2024-05-09T03:31:23.515Z,10.55
2024-05-09T03:32:55.290Z,10.31
2024-05-09T03:34:27.128Z,10.11
2024-05-09T03:35:58.827Z,9.77
2024-05-09T03:37:30.539Z,9.90
2024-05-09T03:39:02.243Z,9.94
2024-05-09T03:40:33.996Z,9.99
2024-05-09T03:42:05.758Z,10.31
2024-05-09T03:43:37.496Z,10.34
2024-05-09T03:45:09.247Z,10.28
2024-05-09T03:46:40.986Z,10.48
2024-05-09T03:48:13.162Z,10.34
2024-05-09T03:49:45.145Z,10.29
2024-05-09T03:51:16.966Z,10.50
2024-05-09T03:52:48.703Z,10.48
2024-05-09T03:54:20.561Z,10.10
2024-05-09T03:55:52.306Z,10.26
2024-05-09T03:57:24.108Z,10.18
2024-05-09T03:58:56.486Z,9.83
2024-05-09T04:00:35.652Z,10.13
2024-05-09T04:02:10.406Z,10.27
2024-05-09T04:03:42.361Z,10.09
2024-05-09T04:05:15.179Z,9.93
2024-05-09T04:06:46.933Z,9.90
2024-05-09T04:08:18.843Z,10.08
2024-05-09T04:09:50.614Z,9.96
2024-05-09T04:11:22.439Z,10.02
2024-05-09T04:12:54.520Z,9.82
2024-05-09T04:14:26.408Z,10.03
2024-05-09T04:15:58.144Z,10.32
2024-05-09T04:17:30.093Z,10.43
2024-05-09T04:19:02.240Z,10.51
2024-05-09T04:20:38.783Z,10.38
2024-05-09T04:22:12.524Z,10.41
2024-05-09T04:23:44.278Z,10.17
2024-05-09T04:25:16.076Z,10.12
2024-05-09T04:26:47.789Z,10.20
2024-05-09T04:28:19.531Z,10.26
2024-05-09T04:29:51.229Z,10.21
2024-05-09T04:31:23.145Z,10.22
2024-05-09T04:32:55.089Z,10.19
2024-05-09T04:34:26.907Z,10.28
2024-05-09T04:35:58.672Z,10.32
2024-05-09T04:37:30.541Z,10.55
2024-05-09T04:39:02.237Z,10.54
2024-05-09T04:40:36.710Z,10.38
2024-05-09T04:42:09.339Z,10.50
2024-05-09T04:43:41.105Z,10.22
2024-05-09T04:45:12.890Z,10.45
2024-05-09T04:46:44.743Z,10.25
2024-05-09T04:48:17.112Z,10.31
2024-05-09T04:49:48.996Z,10.33
2024-05-09T04:51:20.734Z,10.38
2024-05-09T04:52:52.466Z,10.29
2024-05-09T04:54:33.678Z,10.36
2024-05-09T04:56:08.447Z,9.95
2024-05-09T04:57:40.178Z,10.06
2024-05-09T04:59:11.927Z,10.29
2024-05-09T05:00:43.795Z,10.48
2024-05-09T05:02:15.719Z,10.32
2024-05-09T05:03:47.793Z,10.46
2024-05-09T05:05:19.741Z,10.15
2024-05-09T05:06:51.599Z,9.90
2024-05-09T05:08:23.463Z,9.84
2024-05-09T05:09:55.254Z,10.18
2024-05-09T05:11:27.042Z,10.36
2024-05-09T05:13:19.974Z,9.98
2024-05-09T05:14:53.358Z,10.01
2024-05-09T05:16:26.112Z,10.31
2024-05-09T05:17:58.022Z,10.10
2024-05-09T05:19:29.921Z,10.40
2024-05-09T05:21:01.863Z,10.53
2024-05-09T05:22:33.644Z,10.42
2024-05-09T05:24:05.653Z,10.35
2024-05-09T05:25:37.600Z,10.18
2024-05-09T05:27:09.425Z,10.40
2024-05-09T05:28:41.149Z,10.28
2024-05-09T05:30:21.028Z,10.32
2024-05-09T05:31:57.116Z,10.18
2024-05-09T05:33:29.016Z,9.95
2024-05-09T05:35:00.884Z,10.14
2024-05-09T05:36:32.572Z,10.43
2024-05-09T05:38:07.037Z,10.68
2024-05-09T05:39:38.786Z,10.35
2024-05-09T05:41:10.662Z,10.07
2024-05-09T05:42:42.927Z,10.47
2024-05-09T05:44:15.882Z,10.35
2024-05-09T05:45:47.736Z,10.09
2024-05-09T05:47:19.648Z,10.00
2024-05-09T05:48:51.568Z,10.22
2024-05-09T05:50:28.096Z,10.23
2024-05-09T05:52:07.169Z,10.26
2024-05-09T05:53:38.957Z,9.87
2024-05-09T05:55:10.745Z,10.11
2024-05-09T05:56:42.476Z,10.32
2024-05-09T05:58:17.402Z,10.49
2024-05-09T05:59:49.183Z,10.52
2024-05-09T06:01:20.972Z,10.65
2024-05-09T06:02:53.353Z,10.61
2024-05-09T06:04:25.396Z,10.23
2024-05-09T06:05:57.279Z,10.32
2024-05-09T06:07:29.091Z,10.60
2024-05-09T06:09:00.885Z,10.64
2024-05-09T06:10:38.280Z,10.54
2024-05-09T06:12:12.295Z,10.63
2024-05-09T06:13:44.238Z,10.93
2024-05-09T06:15:15.970Z,10.80
2024-05-09T06:16:47.881Z,11.15
2024-05-09T06:18:19.954Z,11.22
2024-05-09T06:19:52.123Z,11.36
2024-05-09T06:21:23.909Z,11.28
2024-05-09T06:22:55.661Z,11.21
2024-05-09T06:24:27.562Z,11.18
2024-05-09T06:25:59.289Z,11.26
2024-05-09T06:27:31.034Z,11.60
2024-05-09T06:29:02.833Z,11.80
2024-05-09T06:30:40.188Z,11.88
2024-05-09T06:32:13.660Z,11.87
2024-05-09T06:33:45.615Z,12.07
2024-05-09T06:35:17.542Z,12.05
2024-05-09T06:36:49.224Z,12.04
2024-05-09T06:38:21.075Z,12.00
2024-05-09T06:39:52.804Z,12.13
2024-05-09T06:41:24.701Z,12.22
2024-05-09T06:44:29.645Z,12.43
2024-05-09T06:46:01.435Z,12.39
2024-05-09T06:47:33.289Z,12.41
2024-05-09T06:49:08.358Z,12.45
2024-05-09T06:50:41.525Z,12.69
2024-05-09T06:52:13.307Z,12.86
2024-05-09T06:53:45.059Z,13.25
2024-05-09T06:55:16.750Z,13.35
2024-05-09T06:56:48.492Z,13.02
2024-05-09T06:58:20.724Z,12.76
2024-05-09T06:59:52.579Z,12.75
2024-05-09T07:01:24.444Z,12.90
2024-05-09T07:02:56.340Z,13.21
2024-05-09T07:04:28.264Z,13.35
2024-05-09T07:06:00.077Z,13.52
2024-05-09T07:07:31.802Z,13.42
2024-05-09T07:09:03.625Z,13.42
2024-05-09T07:10:36.825Z,13.58
2024-05-09T07:12:09.165Z,13.79
2024-05-09T07:13:41.009Z,13.42
2024-05-09T07:15:12.728Z,13.42
2024-05-09T07:16:44.487Z,13.46
2024-05-09T07:18:18.432Z,13.78
2024-05-09T07:19:51.431Z,14.01
2024-05-09T07:21:23.658Z,14.13
2024-05-09T07:22:55.504Z,14.14
2024-05-09T07:24:27.269Z,14.36
2024-05-09T07:25:58.984Z,14.23
2024-05-09T07:27:30.715Z,14.31
2024-05-09T07:29:02.569Z,14.39
2024-05-09T07:30:35.122Z,14.21
2024-05-09T07:32:08.997Z,14.24
2024-05-09T07:33:40.826Z,14.31
2024-05-09T07:35:12.901Z,14.43
2024-05-09T07:36:44.706Z,14.59
2024-05-09T07:38:16.895Z,14.57
2024-05-09T07:39:48.624Z,14.41
2024-05-09T07:41:20.395Z,14.50
2024-05-09T07:42:52.150Z,14.44
2024-05-09T07:44:23.960Z,14.78
2024-05-09T07:45:59.164Z,14.68
2024-05-09T07:49:11.904Z,14.52
2024-05-09T07:53:34.273Z,14.66
2024-05-09T07:54:33.802Z,14.97
2024-05-09T07:56:06.326Z,15.15
2024-05-09T07:57:38.268Z,15.11
2024-05-09T07:59:10.000Z,15.16
2024-05-09T08:00:41.807Z,14.93
2024-05-09T08:02:13.715Z,14.93
2024-05-09T08:03:45.791Z,15.12
2024-05-09T08:05:17.755Z,15.09
2024-05-09T08:06:49.606Z,15.02
2024-05-09T08:08:23.377Z,15.41
2024-05-09T08:09:55.320Z,15.21
2024-05-09T08:11:27.117Z,15.35
2024-05-09T08:12:58.880Z,15.45
2024-05-09T08:14:31.313Z,15.45
2024-05-09T08:16:03.126Z,15.23
2024-05-09T08:17:35.272Z,15.45
2024-05-09T08:19:07.136Z,15.33
2024-05-09T08:20:40.275Z,15.53
2024-05-09T08:22:12.035Z,15.40
2024-05-09T08:23:43.799Z,15.30
2024-05-09T08:25:15.749Z,15.30
2024-05-09T08:26:47.649Z,15.37
2024-05-09T08:28:19.643Z,15.50
2024-05-09T08:29:51.557Z,15.58
2024-05-09T08:31:23.416Z,15.71
2024-05-09T08:32:55.300Z,15.69
2024-05-09T08:34:27.313Z,15.65
2024-05-09T08:35:59.054Z,15.75
2024-05-09T08:37:35.030Z,15.98
2024-05-09T08:39:09.763Z,15.91
2024-05-09T08:40:41.944Z,15.95
2024-05-09T08:42:17.602Z,15.91
2024-05-09T08:43:49.328Z,15.93
2024-05-09T08:45:21.767Z,15.92
2024-05-09T08:46:53.826Z,16.00
2024-05-09T08:48:26.275Z,15.99
2024-05-09T08:50:03.173Z,16.07
2024-05-09T08:51:35.729Z,16.14
2024-05-09T08:53:08.668Z,16.12
2024-05-09T08:54:40.764Z,16.15
2024-05-09T09:03:06.630Z,16.25
2024-05-09T09:04:41.006Z,16.67
2024-05-09T09:06:16.645Z,16.58
2024-05-09T09:07:51.386Z,16.66
2024-05-09T09:09:23.786Z,16.44
2024-05-09T09:10:58.782Z,16.54
2024-05-09T09:12:30.577Z,16.57
2024-05-09T09:14:02.355Z,16.48
2024-05-09T09:15:34.145Z,16.42
2024-05-09T09:17:13.693Z,16.71
2024-05-09T09:18:49.658Z,16.67
2024-05-09T09:20:28.765Z,16.75
2024-05-09T09:22:05.869Z,16.88
2024-05-09T09:23:39.466Z,16.96
2024-05-09T09:25:11.293Z,16.92
2024-05-09T09:26:45.196Z,16.72
2024-05-09T09:28:17.079Z,16.67
2024-05-09T09:29:49.139Z,17.07
2024-05-09T09:31:21.110Z,16.92
2024-05-09T09:32:53.155Z,16.85
2024-05-09T09:34:28.591Z,16.79
2024-05-09T09:36:04.192Z,16.85
2024-05-09T09:37:37.950Z,17.15
2024-05-09T09:39:10.053Z,17.05
2024-05-09T09:40:49.561Z,17.08
2024-05-09T09:42:23.483Z,17.10
2024-05-09T09:43:57.810Z,17.26
2024-05-09T09:45:31.401Z,17.14
2024-05-09T09:47:03.351Z,17.11
2024-05-09T09:48:36.514Z,17.39
2024-05-09T09:50:14.294Z,17.45
2024-05-09T09:51:49.518Z,17.41
2024-05-09T09:53:23.643Z,17.37
2024-05-09T09:54:57.259Z,17.49
2024-05-09T09:56:30.788Z,17.34
2024-05-09T09:58:04.320Z,17.63
2024-05-09T09:59:39.325Z,17.55
2024-05-09T10:01:11.322Z,17.45
2024-05-09T10:02:43.541Z,17.55
2024-05-09T10:04:19.026Z,17.52
2024-05-09T10:05:51.885Z,17.55
2024-05-09T10:07:24.696Z,17.40
2024-05-09T10:08:57.251Z,17.76
2024-05-09T10:10:33.466Z,17.79
2024-05-09T10:12:13.663Z,17.83
2024-05-09T10:13:46.483Z,17.82
2024-05-09T10:15:19.759Z,17.85
2024-05-09T10:16:51.498Z,17.85
2024-05-09T10:18:29.170Z,17.77
2024-05-09T10:20:14.509Z,17.87
2024-05-09T10:22:01.620Z,17.75
2024-05-09T10:23:36.565Z,17.96
2024-05-09T10:25:09.324Z,17.94
2024-05-09T10:26:41.216Z,18.03
2024-05-09T10:28:13.108Z,18.05
2024-05-09T10:29:52.495Z,18.17
2024-05-09T10:31:28.570Z,18.00
2024-05-09T10:33:00.390Z,17.74
2024-05-09T10:34:36.865Z,17.73
2024-05-09T10:36:12.811Z,17.87
2024-05-09T10:37:46.352Z,18.05
2024-05-09T10:39:19.795Z,18.08
2024-05-09T10:40:56.947Z,18.14
2024-05-09T10:42:28.867Z,17.96
2024-05-09T10:44:00.592Z,18.07
2024-05-09T10:45:32.759Z,18.15
2024-05-09T10:47:04.595Z,17.95
2024-05-09T10:48:37.420Z,18.14
2024-05-09T10:50:18.307Z,18.06
2024-05-09T10:51:57.308Z,18.32
2024-05-09T10:53:29.058Z,18.32
2024-05-09T10:55:02.299Z,18.34
2024-05-09T10:56:35.611Z,18.39
2024-05-09T10:58:17.718Z,17.98
2024-05-09T10:59:50.228Z,18.50
2024-05-09T11:01:22.186Z,18.53
2024-05-09T11:02:54.280Z,18.41
2024-05-09T11:04:27.900Z,18.53
2024-05-09T11:05:59.852Z,18.22
2024-05-09T11:07:31.767Z,18.36
2024-05-09T11:09:03.738Z,18.29
2024-05-09T11:10:36.537Z,18.33
2024-05-09T11:12:09.149Z,18.32
2024-05-09T11:13:44.452Z,18.53
2024-05-09T11:15:17.410Z,18.67
2024-05-09T11:17:05.770Z,18.75
2024-05-09T11:18:39.220Z,18.83
2024-05-09T11:20:17.071Z,18.43
2024-05-09T11:21:55.570Z,18.52
2024-05-09T11:23:30.137Z,19.02
2024-05-09T11:25:01.936Z,18.84
2024-05-09T11:26:35.332Z,18.96
2024-05-09T11:28:09.442Z,19.00
2024-05-09T11:29:47.788Z,18.82
2024-05-09T11:31:19.730Z,18.87
2024-05-09T11:32:52.818Z,18.97
2024-05-09T11:34:25.733Z,19.25
2024-05-09T11:35:57.657Z,19.19
2024-05-09T11:37:31.388Z,19.12
2024-05-09T11:39:04.110Z,19.03
2024-05-09T11:40:38.125Z,18.87
2024-05-09T11:42:09.984Z,18.95
2024-05-09T11:43:41.708Z,19.01
2024-05-09T11:45:13.624Z,18.74
2024-05-09T11:46:48.704Z,18.81
2024-05-09T11:48:20.620Z,18.80
2024-05-09T11:49:56.888Z,18.93
2024-05-09T11:51:28.819Z,19.11
2024-05-09T11:53:00.562Z,19.05
2024-05-09T11:54:32.366Z,18.95
2024-05-09T11:56:07.822Z,18.83
2024-05-09T11:57:39.834Z,18.79
2024-05-09T11:59:11.722Z,18.86
2024-05-09T12:00:46.469Z,18.82
2024-05-09T12:02:18.764Z,19.04
2024-05-09T12:03:51.877Z,19.27
2024-05-09T12:05:24.053Z,19.38
2024-05-09T12:07:02.328Z,19.20
2024-05-09T12:08:36.894Z,19.15
2024-05-09T12:10:14.227Z,19.23
2024-05-09T12:11:51.257Z,19.25
2024-05-09T12:13:23.324Z,18.96
2024-05-09T12:14:55.253Z,19.17
2024-05-09T12:16:27.179Z,19.13
2024-05-09T12:18:02.452Z,19.18
2024-05-09T12:19:35.962Z,19.30
2024-05-09T12:21:07.854Z,19.41
2024-05-09T12:22:39.573Z,19.32
2024-05-09T12:24:12.114Z,19.29
2024-05-09T12:25:47.277Z,19.24
2024-05-09T12:27:18.990Z,19.02
2024-05-09T12:28:50.844Z,19.08
2024-05-09T12:30:32.748Z,19.38
2024-05-09T12:32:09.343Z,19.47
2024-05-09T12:33:41.248Z,19.48
2024-05-09T12:35:16.725Z,19.84
2024-05-09T12:36:48.573Z,19.62
2024-05-09T12:38:20.318Z,19.86
2024-05-09T12:39:52.319Z,19.50
2024-05-09T12:41:26.692Z,19.46
2024-05-09T12:42:58.446Z,19.32
2024-05-09T12:44:30.239Z,19.61
2024-05-09T12:46:03.568Z,19.87
2024-05-09T12:47:38.503Z,20.30
2024-05-09T12:49:10.614Z,21.24
2024-05-09T12:50:45.814Z,20.64
2024-05-09T12:52:17.658Z,20.69
2024-05-09T12:53:49.437Z,20.16
2024-05-09T12:55:21.330Z,19.88
2024-05-09T12:56:53.158Z,19.83
2024-05-09T12:58:24.979Z,19.81
2024-05-09T12:59:56.853Z,19.73
2024-05-09T13:01:28.860Z,19.63
2024-05-09T13:03:01.109Z,19.45
2024-05-09T13:04:33.399Z,19.81
2024-05-09T13:06:05.445Z,20.37
2024-05-09T13:07:38.585Z,20.08
2024-05-09T13:09:11.837Z,19.94
2024-05-09T13:10:44.019Z,20.12
2024-05-09T13:12:15.958Z,20.20
2024-05-09T13:13:47.696Z,20.38
2024-05-09T13:15:19.404Z,20.99
2024-05-09T13:16:51.725Z,21.07
2024-05-09T13:18:23.557Z,21.26
2024-05-09T13:19:55.318Z,21.27
2024-05-09T13:21:27.040Z,20.99
2024-05-09T13:23:01.294Z,21.40
2024-05-09T13:24:33.137Z,21.37
2024-05-09T13:26:05.096Z,20.83
2024-05-09T13:27:36.817Z,20.70
2024-05-09T13:29:08.592Z,20.33
2024-05-09T13:30:42.117Z,20.55
2024-05-09T13:32:14.271Z,21.03
2024-05-09T13:33:46.105Z,21.34
2024-05-09T13:35:17.907Z,21.00
2024-05-09T13:36:49.843Z,20.84
2024-05-09T13:38:22.361Z,20.36
2024-05-09T13:39:54.184Z,20.18
2024-05-09T13:41:25.921Z,20.06
2024-05-09T13:42:57.709Z,20.11
2024-05-09T13:44:29.597Z,20.18
2024-05-09T13:46:01.359Z,20.21
2024-05-09T13:47:33.464Z,20.78
2024-05-09T13:49:07.110Z,20.96
2024-05-09T13:50:40.334Z,20.88
2024-05-09T13:52:12.058Z,20.86
2024-05-09T13:53:43.809Z,20.94
2024-05-09T13:55:15.757Z,20.82
2024-05-09T13:56:47.585Z,20.55
2024-05-09T13:58:19.753Z,20.43
2024-05-09T13:59:51.540Z,20.50
2024-05-09T14:01:23.422Z,20.52
2024-05-09T14:02:55.314Z,20.46
2024-05-09T14:04:27.330Z,20.41
2024-05-09T14:05:59.675Z,20.42
2024-05-09T14:07:32.149Z,20.50
2024-05-09T14:09:09.656Z,20.33
2024-05-09T14:10:44.534Z,20.02
2024-05-09T14:12:16.756Z,19.89
2024-05-09T14:13:48.485Z,19.97
2024-05-09T14:15:20.199Z,20.00
2024-05-09T14:16:52.046Z,19.94
2024-05-09T14:18:24.065Z,19.88
2024-05-09T14:19:55.916Z,20.10
2024-05-09T14:21:27.701Z,20.18
2024-05-09T14:23:00.706Z,20.30
2024-05-09T14:24:33.256Z,20.16
2024-05-09T14:26:05.225Z,20.16
2024-05-09T14:27:37.083Z,19.93
2024-05-09T14:29:08.809Z,19.81
2024-05-09T14:30:41.278Z,19.74
2024-05-09T14:32:13.216Z,19.38
2024-05-09T14:33:45.076Z,19.51
2024-05-09T14:35:17.041Z,19.41
2024-05-09T14:36:48.869Z,19.15
2024-05-09T14:38:20.832Z,19.15
2024-05-09T14:39:52.722Z,19.36
2024-05-09T14:41:24.509Z,19.34
2024-05-09T14:42:57.433Z,19.39
2024-05-09T14:44:30.739Z,19.42
2024-05-09T14:46:02.627Z,19.42
2024-05-09T14:47:34.763Z,19.47
2024-05-09T14:49:08.585Z,19.27
2024-05-09T14:50:42.350Z,19.31
2024-05-09T14:52:14.397Z,19.35
2024-05-09T14:53:46.338Z,19.27
2024-05-09T14:55:18.099Z,19.46
2024-05-09T14:56:51.238Z,19.57
2024-05-09T14:58:23.794Z,19.67
2024-05-09T14:59:55.729Z,19.72
2024-05-09T15:01:28.126Z,19.66
2024-05-09T15:03:00.485Z,19.46
2024-05-09T15:04:32.572Z,19.61
2024-05-09T15:06:04.820Z,19.53
2024-05-09T15:07:37.695Z,19.50
2024-05-09T15:09:10.177Z,19.54
2024-05-09T15:10:41.937Z,19.52
2024-05-09T15:12:13.798Z,19.43
2024-05-09T15:13:45.557Z,19.51
2024-05-09T15:15:18.024Z,19.48
2024-05-09T15:16:50.081Z,19.26
2024-05-09T15:18:22.192Z,19.42
2024-05-09T15:19:54.054Z,19.52
2024-05-09T15:21:25.881Z,19.52
2024-05-09T15:22:58.472Z,19.60
2024-05-09T15:24:30.322Z,19.67
2024-05-09T15:26:03.878Z,19.75
2024-05-09T15:27:35.646Z,19.75
2024-05-09T15:29:07.493Z,19.70
2024-05-09T15:30:40.664Z,19.55
2024-05-09T15:32:14.712Z,19.58
2024-05-09T15:33:46.549Z,19.59
2024-05-09T15:35:18.427Z,19.64
2024-05-09T15:36:51.341Z,19.51
2024-05-09T15:38:23.210Z,19.47
2024-05-09T15:39:54.965Z,19.37
2024-05-09T15:41:26.864Z,19.29
2024-05-09T15:42:58.638Z,19.26
2024-05-09T15:44:30.548Z,19.17
2024-05-09T15:46:02.468Z,19.06
2024-05-09T15:47:34.699Z,19.22
2024-05-09T15:49:06.724Z,19.18
2024-05-09T15:50:41.321Z,19.07
2024-05-09T15:52:17.959Z,19.11
2024-05-09T15:53:49.800Z,18.97
2024-05-09T15:55:21.730Z,19.07
2024-05-09T15:56:53.851Z,19.09
2024-05-09T15:58:25.802Z,19.22
2024-05-09T15:59:58.045Z,19.14
2024-05-09T16:01:30.148Z,19.14
2024-05-09T16:03:02.036Z,19.23
2024-05-09T16:04:34.016Z,19.23
2024-05-09T16:06:06.528Z,19.23
2024-05-09T16:07:39.124Z,19.29
2024-05-09T16:09:10.938Z,19.23
2024-05-09T16:10:45.886Z,19.15
2024-05-09T16:12:18.643Z,19.05
2024-05-09T16:13:50.385Z,19.06
2024-05-09T16:15:22.188Z,18.97
2024-05-09T16:16:54.176Z,18.96
2024-05-09T16:18:26.234Z,18.98
2024-05-09T16:19:58.245Z,19.00
2024-05-09T16:21:30.020Z,19.01
2024-05-09T16:23:01.820Z,18.93
2024-05-09T16:24:33.687Z,18.92
2024-05-09T16:26:06.214Z,18.95
2024-05-09T16:27:38.410Z,18.94
2024-05-09T16:29:10.228Z,18.97
2024-05-09T16:30:42.245Z,18.95
2024-05-09T16:32:14.044Z,18.93
2024-05-09T16:33:45.940Z,18.96
2024-05-09T16:35:17.802Z,18.95
2024-05-09T16:36:51.457Z,18.96
2024-05-09T16:38:23.387Z,19.01
2024-05-09T16:39:55.136Z,19.03
2024-05-09T16:41:26.896Z,18.95
2024-05-09T16:43:00.092Z,18.99
2024-05-09T16:44:33.640Z,19.00
2024-05-09T16:46:06.283Z,19.02
2024-05-09T16:47:38.698Z,18.95
2024-05-09T16:49:10.994Z,18.95
2024-05-09T16:50:42.861Z,18.92
2024-05-09T16:52:15.676Z,18.88
2024-05-09T16:53:47.507Z,18.85
2024-05-09T16:55:21.269Z,18.86
2024-05-09T16:56:53.192Z,18.87
2024-05-09T16:58:26.558Z,18.85
2024-05-09T16:59:58.357Z,18.83
2024-05-09T17:01:30.872Z,18.79
2024-05-09T17:03:02.818Z,18.81
2024-05-09T17:04:34.811Z,18.79
2024-05-09T17:06:06.688Z,18.81
2024-05-09T17:07:38.639Z,18.75
2024-05-09T17:09:12.021Z,18.73
2024-05-09T17:10:51.290Z,18.73
2024-05-09T17:12:25.382Z,18.70
2024-05-09T17:13:57.199Z,18.68
2024-05-09T17:15:28.935Z,18.71
2024-05-09T17:17:00.943Z,18.66
2024-05-09T17:18:32.846Z,18.67
2024-05-09T17:20:08.574Z,18.67
2024-05-09T17:21:44.287Z,18.67
2024-05-09T17:23:16.061Z,18.62
2024-05-09T17:24:47.845Z,18.59
2024-05-09T17:26:20.451Z,18.62
2024-05-09T17:27:52.281Z,18.59
2024-05-09T17:29:24.171Z,18.57
2024-05-09T17:30:55.997Z,18.55
2024-05-09T17:32:27.911Z,18.58
2024-05-09T17:34:00.295Z,18.57
2024-05-09T17:35:32.505Z,18.58
2024-05-09T17:37:04.663Z,18.51
2024-05-09T17:38:36.477Z,18.45
2024-05-09T17:40:16.608Z,18.45
2024-05-09T17:41:48.935Z,18.43
2024-05-09T17:43:21.238Z,18.41
2024-05-09T17:44:53.163Z,18.37
2024-05-09T17:46:25.081Z,18.38
2024-05-09T17:47:57.286Z,18.42
2024-05-09T17:49:29.389Z,18.36
2024-05-09T17:51:01.231Z,18.36
2024-05-09T17:52:32.974Z,18.33
2024-05-09T17:54:04.733Z,18.24
2024-05-09T17:55:37.066Z,18.35
2024-05-09T17:57:09.287Z,18.33
2024-05-09T17:58:41.397Z,18.31
2024-05-09T18:00:17.396Z,18.26
2024-05-09T18:01:52.918Z,18.19
2024-05-09T18:03:24.795Z,18.17
2024-05-09T18:04:56.848Z,18.17
2024-05-09T18:06:28.630Z,18.16
2024-05-09T18:08:00.422Z,18.13
2024-05-09T18:09:32.207Z,18.10
2024-05-09T18:11:04.307Z,18.10
2024-05-09T18:12:36.366Z,18.13
2024-05-09T18:14:08.212Z,18.12
2024-05-09T18:15:40.498Z,18.06
2024-05-09T18:17:13.486Z,18.03
2024-05-09T18:18:45.785Z,18.04
2024-05-09T18:20:28.317Z,18.03
2024-05-09T18:22:08.340Z,18.07
2024-05-09T18:23:40.142Z,18.06
2024-05-09T18:25:12.014Z,18.03
2024-05-09T18:26:44.066Z,18.06
2024-05-09T18:28:16.983Z,18.06
2024-05-09T18:29:50.175Z,17.98
2024-05-09T18:31:21.973Z,18.00
2024-05-09T18:32:53.759Z,17.99
2024-05-09T18:34:25.656Z,17.95
2024-05-09T18:35:58.040Z,17.98
2024-05-09T18:37:29.892Z,17.98
2024-05-09T18:39:01.798Z,17.97
2024-05-09T18:40:36.622Z,17.86
2024-05-09T18:42:09.935Z,17.75
2024-05-09T18:43:45.220Z,17.68
2024-05-09T18:45:20.187Z,17.73
2024-05-09T18:46:51.892Z,17.70
2024-05-09T18:48:23.778Z,17.67
2024-05-09T18:49:55.785Z,17.71
2024-05-09T18:51:28.000Z,17.72
2024-05-09T18:52:59.783Z,17.72
2024-05-09T18:54:31.598Z,17.74
2024-05-09T18:56:03.533Z,17.70
2024-05-09T18:57:35.360Z,17.70
2024-05-09T18:59:07.183Z,17.58
2024-05-09T19:00:41.609Z,17.55
2024-05-09T19:02:16.004Z,17.50
2024-05-09T19:03:48.520Z,17.50
2024-05-09T19:05:20.602Z,17.49
2024-05-09T19:06:52.544Z,17.37
2024-05-09T19:08:24.245Z,17.16
2024-05-09T19:09:56.071Z,17.01
2024-05-09T19:11:27.841Z,17.17
2024-05-09T19:12:59.792Z,17.16
2024-05-09T19:14:31.622Z,17.00
2024-05-09T19:16:03.613Z,17.07
2024-05-09T19:17:35.556Z,16.89
2024-05-09T19:19:07.650Z,16.91
2024-05-09T19:20:39.806Z,16.90
2024-05-09T19:22:11.783Z,16.95
2024-05-09T19:23:50.436Z,17.02
2024-05-09T19:25:23.831Z,16.83
2024-05-09T19:26:56.397Z,16.64
2024-05-09T19:28:28.131Z,16.84
2024-05-09T19:29:59.932Z,16.93
2024-05-09T19:31:31.759Z,17.06
2024-05-09T19:33:04.050Z,17.05
2024-05-09T19:34:35.942Z,17.13
2024-05-09T19:36:08.183Z,17.02
2024-05-09T19:37:42.121Z,16.99
2024-05-09T19:39:15.607Z,17.01
2024-05-09T19:40:47.598Z,16.94
2024-05-09T19:42:19.447Z,16.67
2024-05-09T19:43:51.134Z,16.49
2024-05-09T19:45:22.889Z,16.34
2024-05-09T19:46:54.842Z,16.67
2024-05-09T19:48:26.873Z,16.61
2024-05-09T19:49:58.717Z,16.43
2024-05-09T19:51:30.912Z,16.42
2024-05-09T19:53:03.101Z,16.27
2024-05-09T19:54:34.873Z,16.25
2024-05-09T19:56:06.891Z,16.53
2024-05-09T19:57:38.649Z,16.55
2024-05-09T19:59:13.644Z,16.26
2024-05-09T20:00:45.559Z,16.17
2024-05-09T20:02:17.876Z,16.29
2024-05-09T20:03:50.021Z,16.44
2024-05-09T20:05:22.233Z,16.54
2024-05-09T20:06:54.168Z,16.48
2024-05-09T20:08:25.903Z,16.25